地図

経路データ

SID SEASON NUMBER BASIN SUBBASIN NAME ISO_TIME NATURE LAT LON WMO_WIND WMO_PRES WMO_AGENCY TRACK_TYPE DIST2LAND LANDFALL IFLAG USA_AGENCY USA_ATCF_ID USA_LAT USA_LON USA_RECORD USA_STATUS USA_WIND USA_PRES USA_SSHS USA_R34_NE USA_R34_SE USA_R34_SW USA_R34_NW USA_R50_NE USA_R50_SE USA_R50_SW USA_R50_NW USA_R64_NE USA_R64_SE USA_R64_SW USA_R64_NW USA_POCI USA_ROCI USA_RMW USA_EYE TOKYO_LAT TOKYO_LON TOKYO_GRADE TOKYO_WIND TOKYO_PRES TOKYO_R50_DIR TOKYO_R50_LONG TOKYO_R50_SHORT TOKYO_R30_DIR TOKYO_R30_LONG TOKYO_R30_SHORT TOKYO_LAND CMA_LAT CMA_LON CMA_CAT CMA_WIND CMA_PRES HKO_LAT HKO_LON HKO_CAT HKO_WIND HKO_PRES NEWDELHI_LAT NEWDELHI_LON NEWDELHI_GRADE NEWDELHI_WIND NEWDELHI_PRES NEWDELHI_CI NEWDELHI_DP NEWDELHI_POCI REUNION_LAT REUNION_LON REUNION_TYPE REUNION_WIND REUNION_PRES REUNION_TNUM REUNION_CI REUNION_RMW REUNION_R34_NE REUNION_R34_SE REUNION_R34_SW REUNION_R34_NW REUNION_R50_NE REUNION_R50_SE REUNION_R50_SW REUNION_R50_NW REUNION_R64_NE REUNION_R64_SE REUNION_R64_SW REUNION_R64_NW BOM_LAT BOM_LON BOM_TYPE BOM_WIND BOM_PRES BOM_TNUM BOM_CI BOM_RMW BOM_R34_NE BOM_R34_SE BOM_R34_SW BOM_R34_NW BOM_R50_NE BOM_R50_SE BOM_R50_SW BOM_R50_NW BOM_R64_NE BOM_R64_SE BOM_R64_SW BOM_R64_NW BOM_ROCI BOM_POCI BOM_EYE BOM_POS_METHOD BOM_PRES_METHOD NADI_LAT NADI_LON NADI_CAT NADI_WIND NADI_PRES WELLINGTON_LAT WELLINGTON_LON WELLINGTON_WIND WELLINGTON_PRES DS824_LAT DS824_LON DS824_STAGE DS824_WIND DS824_PRES TD9636_LAT TD9636_LON TD9636_STAGE TD9636_WIND TD9636_PRES TD9635_LAT TD9635_LON TD9635_WIND TD9635_PRES TD9635_ROCI NEUMANN_LAT NEUMANN_LON NEUMANN_CLASS NEUMANN_WIND NEUMANN_PRES MLC_LAT MLC_LON MLC_CLASS MLC_WIND MLC_PRES USA_GUST BOM_GUST BOM_GUST_PER REUNION_GUST REUNION_GUST_PER USA_SEAHGT USA_SEARAD_NE USA_SEARAD_SE USA_SEARAD_SW USA_SEARAD_NW STORM_SPEED STORM_DIR
1926265N29311 1926 47 NA NA NOT_NAMED 1926-09-21 12:00:00 TS 29.0000 -49.0000 45 hurdat_atl main 1993 1993 O_____________ hurdat_atl AL081926 29.0000 -49.0000 TS 45 0 5 79
1926265N29311 1926 47 NA NA NOT_NAMED 1926-09-21 15:00:00 TS 29.0501 -48.7001 main 1987 1987 P_____________ AL081926 29.0501 -48.7001 TS 47 0 5 79
1926265N29311 1926 47 NA NA NOT_NAMED 1926-09-21 18:00:00 TS 29.1000 -48.4000 50 hurdat_atl main 1992 1992 O_____________ hurdat_atl AL081926 29.1000 -48.4000 TS 50 0 5 79
1926265N29311 1926 47 NA NA NOT_NAMED 1926-09-21 21:00:00 TS 29.1499 -48.1000 main 1998 1987 P_____________ AL081926 29.1499 -48.1000 TS 52 0 5 79
1926265N29311 1926 47 NA NA NOT_NAMED 1926-09-22 00:00:00 TS 29.2000 -47.8000 55 hurdat_atl main 1993 1993 O_____________ hurdat_atl AL081926 29.2000 -47.8000 TS 55 0 5 80
1926265N29311 1926 47 NA NA NOT_NAMED 1926-09-22 03:00:00 TS 29.2424 -47.5074 main 1999 1988 P_____________ AL081926 29.2424 -47.5074 TS 57 0 5 79
1926265N29311 1926 47 NA NA NOT_NAMED 1926-09-22 06:00:00 TS 29.3000 -47.2000 60 hurdat_atl main 1995 1988 O_____________ hurdat_atl AL081926 29.3000 -47.2000 TS 60 0 6 75
1926265N29311 1926 47 NA NA NOT_NAMED 1926-09-22 09:00:00 TS 29.3923 -46.8725 main 1991 1985 P_____________ AL081926 29.3923 -46.8725 TS 62 0 6 72
1926265N29311 1926 47 NA NA NOT_NAMED 1926-09-22 12:00:00 TS 29.5000 -46.5000 65 hurdat_atl main 1990 1984 O_____________ hurdat_atl AL081926 29.5000 -46.5000 HU 65 1 7 74
1926265N29311 1926 47 NA NA NOT_NAMED 1926-09-22 15:00:00 TS 29.5925 -46.0648 main 1989 1987 P_____________ AL081926 29.5925 -46.0648 HU 67 1 8 76
1926265N29311 1926 47 NA NA NOT_NAMED 1926-09-22 18:00:00 TS 29.7000 -45.6000 70 hurdat_atl main 1992 1987 O_____________ hurdat_atl AL081926 29.7000 -45.6000 HU 70 1 8 72
1926265N29311 1926 47 NA NA NOT_NAMED 1926-09-22 21:00:00 TS 29.8423 -45.1574 main 1993 1984 P_____________ AL081926 29.8423 -45.1574 HU 72 1 8 69
1926265N29311 1926 47 NA NA NOT_NAMED 1926-09-23 00:00:00 TS 30.0000 -44.7000 75 hurdat_atl main 1987 1983 O_____________ hurdat_atl AL081926 30.0000 -44.7000 HU 75 1 9 69
1926265N29311 1926 47 NA NA NOT_NAMED 1926-09-23 03:00:00 TS 30.1499 -44.2074 main 1993 1983 P_____________ AL081926 30.1499 -44.2074 HU 75 1 9 71
1926265N29311 1926 47 NA NA NOT_NAMED 1926-09-23 06:00:00 TS 30.3000 -43.7000 75 hurdat_atl main 1989 1986 O_____________ hurdat_atl AL081926 30.3000 -43.7000 HU 75 1 9 71
1926265N29311 1926 47 NA NA NOT_NAMED 1926-09-23 09:00:00 TS 30.4574 -43.1925 main 1987 1987 P_____________ AL081926 30.4574 -43.1925 HU 77 1 9 71
1926265N29311 1926 47 NA NA NOT_NAMED 1926-09-23 12:00:00 TS 30.6000 -42.7000 80 hurdat_atl main 1996 1993 O_____________ hurdat_atl AL081926 30.6000 -42.7000 HU 80 1 9 73
1926265N29311 1926 47 NA NA NOT_NAMED 1926-09-23 15:00:00 TS 30.7073 -42.2348 main 2005 2003 P_____________ AL081926 30.7073 -42.2348 HU 80 1 8 76
1926265N29311 1926 47 NA NA NOT_NAMED 1926-09-23 18:00:00 TS 30.8000 -41.8000 80 hurdat_atl main 2011 2011 O_____________ hurdat_atl AL081926 30.8000 -41.8000 HU 80 1 7 76
1926265N29311 1926 47 NA NA NOT_NAMED 1926-09-23 21:00:00 TS 30.8847 -41.3997 main 2018 2018 P_____________ AL081926 30.8847 -41.3997 HU 82 1 7 74
1926265N29311 1926 47 NA NA NOT_NAMED 1926-09-24 00:00:00 TS 31.0000 -41.0000 85 hurdat_atl main 2026 2024 O_____________ hurdat_atl AL081926 31.0000 -41.0000 HU 85 2 8 68
1926265N29311 1926 47 NA NA NOT_NAMED 1926-09-24 03:00:00 TS 31.1699 -40.5573 main 2024 2023 P_____________ AL081926 31.1699 -40.5573 HU 85 2 9 63
1926265N29311 1926 47 NA NA NOT_NAMED 1926-09-24 06:00:00 TS 31.4000 -40.1000 85 hurdat_atl main 2027 2022 O_____________ hurdat_atl AL081926 31.4000 -40.1000 HU 85 2 9 59
1926265N29311 1926 47 NA NA NOT_NAMED 1926-09-24 09:00:00 TS 31.6323 -39.6565 main 2027 2013 P_____________ AL081926 31.6323 -39.6565 HU 87 2 10 52
1926265N29311 1926 47 NA NA NOT_NAMED 1926-09-24 12:00:00 TS 32.0000 -39.2000 90 hurdat_atl main 2014 1987 O_____________ hurdat_atl AL081926 32.0000 -39.2000 HU 90 2 12 40
1926265N29311 1926 47 NA NA NOT_NAMED 1926-09-24 15:00:00 TS 32.5822 -38.7221 main 1983 1946 P_____________ AL081926 32.5822 -38.7221 HU 90 2 16 33
1926265N29311 1926 47 NA NA NOT_NAMED 1926-09-24 18:00:00 TS 33.3000 -38.2000 90 hurdat_atl main 1946 1912 O_____________ hurdat_atl AL081926 33.3000 -38.2000 HU 90 2 17 32
1926265N29311 1926 47 NA NA NOT_NAMED 1926-09-24 21:00:00 TS 34.0572 -37.6297 main 1909 1884 P_____________ AL081926 34.0572 -37.6297 HU 90 2 18 34
1926265N29311 1926 47 NA NA NOT_NAMED 1926-09-25 00:00:00 TS 34.8000 -37.0000 90 hurdat_atl main 1884 1866 O_____________ hurdat_atl AL081926 34.8000 -37.0000 HU 90 2 18 37
1926265N29311 1926 47 NA NA NOT_NAMED 1926-09-25 03:00:00 TS 35.4745 -36.3300 main 1869 1863 P_____________ AL081926 35.4745 -36.3300 HU 90 2 17 44
1926265N29311 1926 47 NA NA NOT_NAMED 1926-09-25 06:00:00 TS 36.0000 -35.6000 90 hurdat_atl main 1872 1871 O_____________ hurdat_atl AL081926 36.0000 -35.6000 HU 90 2 15 55
1926265N29311 1926 47 NA NA NOT_NAMED 1926-09-25 09:00:00 TS 36.3319 -34.8291 main 1900 1849 P_____________ AL081926 36.3319 -34.8291 HU 90 2 14 69
1926265N29311 1926 47 NA NA NOT_NAMED 1926-09-25 12:00:00 TS 36.5000 -34.0000 90 hurdat_atl main 1849 1789 O_____________ hurdat_atl AL081926 36.5000 -34.0000 HU 90 2 14 79
1926265N29311 1926 47 NA NA NOT_NAMED 1926-09-25 15:00:00 TS 36.5945 -33.1220 main 1781 1718 P_____________ AL081926 36.5945 -33.1220 HU 90 2 14 86
1926265N29311 1926 47 NA NA NOT_NAMED 1926-09-25 18:00:00 TS 36.6000 -32.2000 90 hurdat_atl main 1710 1640 O_____________ hurdat_atl AL081926 36.6000 -32.2000 HU 90 2 15 91
1926265N29311 1926 47 NA NA NOT_NAMED 1926-09-25 21:00:00 TS 36.5569 -31.2568 main 1640 1566 P_____________ AL081926 36.5569 -31.2568 HU 90 2 15 94
1926265N29311 1926 47 NA NA NOT_NAMED 1926-09-26 00:00:00 TS 36.5000 -30.3000 90 hurdat_atl main 1558 1491 O_____________ hurdat_atl AL081926 36.5000 -30.3000 HU 90 2 15 93
1926265N29311 1926 47 NA NA NOT_NAMED 1926-09-26 03:00:00 TS 36.4768 -29.3497 main 1483 1425 P_____________ AL081926 36.4768 -29.3497 HU 90 2 15 90
1926265N29311 1926 47 NA NA NOT_NAMED 1926-09-26 06:00:00 TS 36.5000 -28.4000 90 hurdat_atl main 1418 1355 O_____________ hurdat_atl AL081926 36.5000 -28.4000 HU 90 2 16 87
1926265N29311 1926 47 NA NA NOT_NAMED 1926-09-26 09:00:00 TS 36.5633 -27.3677 main 1355 1303 P_____________ AL081926 36.5633 -27.3677 HU 90 2 15 83
1926265N29311 1926 47 NA NA NOT_NAMED 1926-09-26 12:00:00 TS 36.7000 -26.5000 90 hurdat_atl main 1303 1279 O_____________ hurdat_atl AL081926 36.7000 -26.5000 HU 90 2 12 74
1926265N29311 1926 47 NA NA NOT_NAMED 1926-09-26 15:00:00 TS 36.8889 -25.9724 main 1286 1280 P_____________ AL081926 36.8889 -25.9724 HU 90 2 8 52
1926265N29311 1926 47 NA NA NOT_NAMED 1926-09-26 18:00:00 TS 37.2000 -25.7000 90 hurdat_atl main 1292 1292 O_____________ hurdat_atl AL081926 37.2000 -25.7000 HU 90 2 8 26
1926265N29311 1926 47 NA NA NOT_NAMED 1926-09-26 21:00:00 TS 37.6398 -25.5178 main 1314 1314 P_____________ AL081926 37.6398 -25.5178 HU 90 2 10 9
1926265N29311 1926 47 NA NA NOT_NAMED 1926-09-27 00:00:00 TS 38.2000 -25.5000 90 hurdat_atl main 1366 1366 O_____________ hurdat_atl AL081926 38.2000 -25.5000 HU 90 2 12 357
1926265N29311 1926 47 NA NA NOT_NAMED 1926-09-27 03:00:00 TS 38.8574 -25.5822 main 1388 1386 P_____________ AL081926 38.8574 -25.5822 HU 87 2 13 350
1926265N29311 1926 47 NA NA NOT_NAMED 1926-09-27 06:00:00 TS 39.5000 -25.8000 85 hurdat_atl main 1401 1401 O_____________ hurdat_atl AL081926 39.5000 -25.8000 HU 85 2 12 341
1926265N29311 1926 47 NA NA NOT_NAMED 1926-09-27 09:00:00 TS 40.0399 -26.0968 main 1426 1426 P_____________ AL081926 40.0399 -26.0968 HU 82 1 10 329
1926265N29311 1926 47 NA NA NOT_NAMED 1926-09-27 12:00:00 TS 40.4000 -26.5000 80 hurdat_atl main 1448 1448 O_____________ hurdat_atl AL081926 40.4000 -26.5000 HU 80 1 8 306
1926265N29311 1926 47 NA NA NOT_NAMED 1926-09-27 15:00:00 TS 40.5250 -26.9782 main 1485 1485 P_____________ AL081926 40.5250 -26.9782 HU 77 1 8 277
1926265N29311 1926 47 NA NA NOT_NAMED 1926-09-27 18:00:00 TS 40.5000 -27.5000 75 hurdat_atl main 1526 1526 O_____________ hurdat_atl AL081926 40.5000 -27.5000 HU 75 1 8 270
1926265N29311 1926 47 NA NA NOT_NAMED 1926-09-27 21:00:00 TS 40.5250 -28.0218 main 1566 1566 P_____________ AL081926 40.5250 -28.0218 HU 72 1 8 263
1926265N29311 1926 47 NA NA NOT_NAMED 1926-09-28 00:00:00 TS 40.4000 -28.5000 70 hurdat_atl main 1610 1610 O_____________ hurdat_atl AL081926 40.4000 -28.5000 HU 70 1 8 233
1926265N29311 1926 47 NA NA NOT_NAMED 1926-09-28 03:00:00 TS 40.0174 -28.9034 main 1655 1655 P_____________ AL081926 40.0174 -28.9034 HU 67 1 10 211
1926265N29311 1926 47 NA NA NOT_NAMED 1926-09-28 06:00:00 TS 39.5000 -29.2000 65 hurdat_atl main 1688 1663 O_____________ hurdat_atl AL081926 39.5000 -29.2000 HU 65 1 11 200
1926265N29311 1926 47 NA NA NOT_NAMED 1926-09-28 09:00:00 TS 38.9624 -29.4023 main 1663 1633 P_____________ AL081926 38.9624 -29.4023 HU 62 0 10 193
1926265N29311 1926 47 NA NA NOT_NAMED 1926-09-28 12:00:00 TS 38.5000 -29.5000 60 hurdat_atl main 1633 1618 O_____________ hurdat_atl AL081926 38.5000 -29.5000 TS 60 0 7 189
1926265N29311 1926 47 NA NA NOT_NAMED 1926-09-28 15:00:00 TS 38.2550 -29.5372 main 1618 1604 P_____________ AL081926 38.2550 -29.5372 TS 60 0 4 0
1926265N29311 1926 47 NA NA NOT_NAMED 1926-09-28 18:00:00 TS 38.1000 -29.5000 60 hurdat_atl main 1604 1584 O_____________ hurdat_atl AL081926 38.1000 -29.5000 TS 60 0 4 167
1926265N29311 1926 47 NA NA NOT_NAMED 1926-09-28 21:00:00 TS 37.9000 -29.4225 main 1584 1563 P_____________ AL081926 37.9000 -29.4225 TS 57 0 4 159
1926265N29311 1926 47 NA NA NOT_NAMED 1926-09-29 00:00:00 TS 37.7000 -29.3000 55 hurdat_atl main 1563 1542 O_____________ hurdat_atl AL081926 37.7000 -29.3000 TS 55 0 4 154
1926265N29311 1926 47 NA NA NOT_NAMED 1926-09-29 03:00:00 TS 37.4999 -29.1726 main 1542 1515 P_____________ AL081926 37.4999 -29.1726 TS 55 0 5 149
1926265N29311 1926 47 NA NA NOT_NAMED 1926-09-29 06:00:00 TS 37.3000 -29.0000 55 hurdat_atl main 1515 1487 O_____________ hurdat_atl AL081926 37.3000 -29.0000 TS 55 0 5 140
1926265N29311 1926 47 NA NA NOT_NAMED 1926-09-29 09:00:00 TS 37.1076 -28.7499 main 1480 1452 P_____________ AL081926 37.1076 -28.7499 TS 52 0 6 135
1926265N29311 1926 47 NA NA NOT_NAMED 1926-09-29 12:00:00 TS 36.9000 -28.5000 50 hurdat_atl main 1452 1425 O_____________ hurdat_atl AL081926 36.9000 -28.5000 TS 50 0 6 143
1926265N29311 1926 47 NA NA NOT_NAMED 1926-09-29 15:00:00 TS 36.6649 -28.3276 main 1425 1397 P_____________ AL081926 36.6649 -28.3276 TS 50 0 6 154
1926265N29311 1926 47 NA NA NOT_NAMED 1926-09-29 18:00:00 TS 36.4000 -28.2000 50 hurdat_atl main 1397 1370 O_____________ hurdat_atl AL081926 36.4000 -28.2000 TS 50 0 6 161
1926265N29311 1926 47 NA NA NOT_NAMED 1926-09-29 21:00:00 TS 36.1075 -28.0926 main 1370 1343 P_____________ AL081926 36.1075 -28.0926 TS 47 0 6 165
1926265N29311 1926 47 NA NA NOT_NAMED 1926-09-30 00:00:00 TS 35.8000 -28.0000 45 hurdat_atl main 1343 1317 O_____________ hurdat_atl AL081926 35.8000 -28.0000 TS 45 0 6 165
1926265N29311 1926 47 NA NA NOT_NAMED 1926-09-30 03:00:00 TS 35.5075 -27.9001 main 1317 1291 P_____________ AL081926 35.5075 -27.9001 TS 45 0 6 165
1926265N29311 1926 47 NA NA NOT_NAMED 1926-09-30 06:00:00 TS 35.2000 -27.8000 45 hurdat_atl main 1291 1265 O_____________ hurdat_atl AL081926 35.2000 -27.8000 TS 45 0 7 168
1926265N29311 1926 47 NA NA NOT_NAMED 1926-09-30 09:00:00 TS 34.8424 -27.7303 main 1259 1233 P_____________ AL081926 34.8424 -27.7303 TS 42 0 7 167
1926265N29311 1926 47 NA NA NOT_NAMED 1926-09-30 12:00:00 TS 34.5000 -27.6000 40 hurdat_atl main 1233 1201 O_____________ hurdat_atl AL081926 34.5000 -27.6000 TS 40 0 7 152
1926265N29311 1926 47 NA NA NOT_NAMED 1926-09-30 15:00:00 TS 34.2275 -27.3375 main 1193 1158 P_____________ AL081926 34.2275 -27.3375 TS 40 0 7 135
1926265N29311 1926 47 NA NA NOT_NAMED 1926-09-30 18:00:00 TS 34.0000 -27.0000 40 hurdat_atl main 1158 1123 O_____________ hurdat_atl AL081926 34.0000 -27.0000 TS 40 0 7 129
1926265N29311 1926 47 NA NA NOT_NAMED 1926-09-30 21:00:00 TS 33.7774 -26.6650 main 1123 1079 P_____________ AL081926 33.7774 -26.6650 TS 40 0 7 125
1926265N29311 1926 47 NA NA NOT_NAMED 1926-10-01 00:00:00 TS 33.6000 -26.3000 40 hurdat_atl main 1079 1042 O_____________ hurdat_atl AL081926 33.6000 -26.3000 TS 40 0 7 115
1926265N29311 1926 47 NA NA NOT_NAMED 1926-10-01 03:00:00 TS 33.4849 -25.9153 main 1042 1005 P_____________ AL081926 33.4849 -25.9153 TS 37 0 7 107
1926265N29311 1926 47 NA NA NOT_NAMED 1926-10-01 06:00:00 TS 33.4000 -25.5000 35 hurdat_atl main 1005 967 O_____________ hurdat_atl AL081926 33.4000 -25.5000 TS 35 0 7 105
1926265N29311 1926 47 NA NA NOT_NAMED 1926-10-01 09:00:00 TS 33.2997 -25.0726 main 967 922 P_____________ AL081926 33.2997 -25.0726 TS 35 0 8 105
1926265N29311 1926 47 NA NA NOT_NAMED 1926-10-01 12:00:00 TS 33.2000 -24.6000 35 hurdat_atl main 922 878 O_____________ hurdat_atl AL081926 33.2000 -24.6000 TS 35 0 9 103
1926265N29311 1926 47 NA NA NOT_NAMED 1926-10-01 15:00:00 TS 33.1006 -24.0672 main 878 827 P_____________ AL081926 33.1006 -24.0672 TS 32 -1 9 102
1926265N29311 1926 47 NA NA NOT_NAMED 1926-10-01 18:00:00 TS 33.0000 -23.5000 30 hurdat_atl main 827 O_____________ hurdat_atl AL081926 33.0000 -23.5000 TD 30 -1 10 102

IBTrACS Databaseについて

本データベースは、米国NOAAが公開する1842年以降の世界の熱帯低気圧のベストトラックデータアーカイブInternational Best Track Archive for Climate Stewardship (IBTrACS)を、ウェブで閲覧しやすい形式に変換したものです。

最終更新日:2021-12-03